Time;durP1;ratioP1;P1;durP2;ratioP2;P2;SDS_P1;SDS_P2;PMS_P1;PMS_P2;Temp;Humidity;BMP_temperature;BMP_pressure;BME280_temperature;BME280_humidity;BME280_pressure;Samples;Min_cycle;Max_cycle;Signal;HPM_P1;HPM_P2
2022/05/23 00:02:03;;;;;;;7.85;4.10;;;;;;;17.50;50.28;94549.81;4977040;28;20038;-78
2022/05/23 00:04:29;;;;;;;3.10;2.75;;;;;;;17.43;50.06;94549.38;4993376;28;20038;-78
2022/05/23 00:06:55;;;;;;;4.32;3.25;;;;;;;17.32;50.03;94546.84;5010547;28;20072;-78
2022/05/23 00:09:20;;;;;;;5.85;2.80;;;;;;;17.27;50.33;94551.38;4976904;28;20061;-78
2022/05/23 00:11:45;;;;;;;6.65;3.22;;;;;;;17.24;50.81;94547.44;4994453;28;20038;-78
2022/05/23 00:14:11;;;;;;;3.60;3.30;;;;;;;17.23;50.43;94542.47;4977308;28;20070;-78
2022/05/23 00:16:38;;;;;;;3.35;3.13;;;;;;;17.21;50.61;94542.75;4991557;28;20041;-77
2022/05/23 00:19:04;;;;;;;4.60;3.40;;;;;;;17.20;51.02;94541.19;4991724;28;20065;-77
2022/05/23 00:21:29;;;;;;;8.00;3.97;;;;;;;17.16;51.98;94544.66;4975639;28;20508;-77
2022/05/23 00:23:55;;;;;;;3.47;3.13;;;;;;;17.09;52.05;94534.50;5008455;28;20034;-77
2022/05/23 00:26:21;;;;;;;20.08;3.40;;;;;;;17.02;52.64;94540.06;4975149;28;20936;-77
2022/05/23 00:28:47;;;;;;;5.05;3.63;;;;;;;16.94;52.91;94534.66;4990397;28;20494;-77
2022/05/23 00:31:12;;;;;;;6.65;3.50;;;;;;;16.85;53.40;94529.22;4975349;28;20074;-77
2022/05/23 00:36:28;;;;;;;4.63;3.40;;;;;;;16.69;53.76;94520.69;5008961;28;20425;-77
2022/05/23 00:38:54;;;;;;;4.40;4.00;;;;;;;16.58;53.88;94534.91;4992260;28;20567;-77
2022/05/23 00:44:22;;;;;;;6.35;3.83;;;;;;;16.42;54.70;94542.13;5004356;28;20111;-77
2022/05/23 00:46:51;;;;;;;11.57;4.18;;;;;;;16.38;55.29;94540.34;4978344;28;20041;-78
2022/05/23 00:49:22;;;;;;;6.32;4.28;;;;;;;16.33;55.03;94535.94;4994860;28;20116;-78
2022/05/23 00:51:48;;;;;;;9.45;4.03;;;;;;;16.29;55.61;94542.00;4978650;28;20037;-78
2022/05/23 00:54:13;;;;;;;6.13;4.10;;;;;;;16.21;55.68;94540.72;4954606;28;20481;-77
2022/05/23 00:56:44;;;;;;;17.13;4.97;;;;;;;16.17;55.76;94548.38;4978610;28;20030;-77
2022/05/23 00:59:09;;;;;;;6.88;4.80;;;;;;;16.09;56.29;94541.06;4994951;28;20143;-77
2022/05/23 01:01:35;;;;;;;4.65;4.22;;;;;;;16.06;56.28;94546.84;4986119;28;20446;-77
2022/05/23 01:04:01;;;;;;;5.70;4.32;;;;;;;16.02;56.22;94547.69;4979404;28;20501;-77
2022/05/23 01:06:27;;;;;;;9.10;4.65;;;;;;;16.02;55.94;94553.72;5013202;28;20033;-77
2022/05/23 01:08:54;;;;;;;4.47;4.10;;;;;;;16.02;55.30;94551.09;4996529;28;20421;-77
2022/05/23 01:11:20;;;;;;;4.10;3.70;;;;;;;16.03;55.31;94555.28;4971425;28;20050;-77
2022/05/23 01:13:45;;;;;;;6.07;3.90;;;;;;;16.02;55.54;94543.22;4986030;28;20076;-78
2022/05/23 01:16:11;;;;;;;6.30;4.35;;;;;;;16.03;55.07;94551.88;4955035;28;20037;-77
2022/05/23 01:18:36;;;;;;;8.73;3.67;;;;;;;16.01;55.06;94551.34;5011730;28;20026;-77
2022/05/23 01:21:03;;;;;;;5.90;3.85;;;;;;;16.00;55.13;94544.53;4993949;28;20040;-77
2022/05/23 01:23:39;;;;;;;7.07;4.00;;;;;;;15.92;55.79;94535.41;4977856;28;20037;-78
2022/05/23 01:26:05;;;;;;;4.38;3.97;;;;;;;15.91;55.65;94531.22;4993341;28;20045;-77
2022/05/23 01:28:40;;;;;;;15.30;4.20;;;;;;;15.89;55.54;94523.63;5012324;28;20088;-77
2022/05/23 01:31:06;;;;;;;5.28;4.55;;;;;;;15.87;55.78;94519.69;4992342;28;20033;-78
2022/05/23 01:33:32;;;;;;;4.22;3.55;;;;;;;15.85;56.06;94537.53;4973850;28;20032;-77
2022/05/23 01:35:59;;;;;;;8.57;4.18;;;;;;;15.80;56.53;94524.47;4978448;28;20037;-77
2022/05/23 01:38:25;;;;;;;13.52;4.30;;;;;;;15.76;57.29;94526.03;4954587;28;20042;-77
2022/05/23 01:40:50;;;;;;;11.50;4.43;;;;;;;15.74;57.12;94517.69;4953694;28;20026;-77
2022/05/23 01:43:16;;;;;;;5.85;4.28;;;;;;;15.69;57.32;94522.97;4993915;28;20041;-77
2022/05/23 01:45:42;;;;;;;5.43;4.50;;;;;;;15.63;57.58;94539.78;4985341;28;20500;-77
2022/05/23 01:48:07;;;;;;;5.13;4.30;;;;;;;15.59;57.59;94532.41;4977838;28;20387;-77
2022/05/23 01:50:33;;;;;;;8.75;3.75;;;;;;;15.58;57.45;94537.91;4993634;28;20034;-77
2022/05/23 01:52:58;;;;;;;4.13;3.75;;;;;;;15.52;58.07;94534.53;4978097;28;20085;-77
2022/05/23 01:55:24;;;;;;;4.10;3.80;;;;;;;15.54;57.95;94532.44;4973995;28;20026;-77
2022/05/23 01:57:50;;;;;;;9.02;4.60;;;;;;;15.55;58.01;94526.13;5001549;28;20138;-77
2022/05/23 02:03:00;;;;;;;6.20;4.15;;;;;;;15.47;58.17;94529.31;4997001;28;20099;-77
2022/05/23 02:05:26;;;;;;;8.80;5.18;;;;;;;15.45;58.40;94536.66;5010495;28;20037;-77
2022/05/23 02:07:55;;;;;;;10.13;4.70;;;;;;;15.42;58.80;94528.53;5010674;28;20422;-76
2022/05/23 02:10:21;;;;;;;6.45;4.60;;;;;;;15.34;59.25;94532.50;5010860;28;20104;-77
2022/05/23 02:12:47;;;;;;;5.70;4.78;;;;;;;15.31;59.28;94533.06;4992823;28;20026;-77
2022/05/23 02:15:12;;;;;;;6.93;6.18;;;;;;;15.25;59.60;94528.88;4961492;28;20555;-77
2022/05/23 02:17:38;;;;;;;8.88;4.90;;;;;;;15.18;59.85;94525.75;4968911;28;20034;-77
2022/05/23 02:20:04;;;;;;;11.07;4.63;;;;;;;15.12;60.17;94524.19;4976967;28;20034;-77
2022/05/23 02:22:30;;;;;;;7.15;4.68;;;;;;;15.12;60.03;94532.81;4976955;28;20046;-77
2022/05/23 02:24:55;;;;;;;10.98;5.22;;;;;;;15.11;60.97;94543.56;4969384;28;20418;-77
2022/05/23 02:27:21;;;;;;;20.73;5.95;;;;;;;15.13;60.70;94531.00;4977119;28;20034;-77
2022/05/23 02:29:46;;;;;;;11.45;4.97;;;;;;;15.16;61.00;94535.72;4993275;28;20092;-77
2022/05/23 02:32:12;;;;;;;5.25;4.85;;;;;;;15.27;60.19;94524.13;4952726;28;20038;-77
2022/05/23 02:34:37;;;;;;;5.65;5.03;;;;;;;15.36;59.93;94525.16;4977041;28;20061;-77
2022/05/23 02:37:03;;;;;;;6.13;4.47;;;;;;;15.45;59.94;94528.78;4968881;28;20045;-77
2022/05/23 02:39:28;;;;;;;6.03;5.07;;;;;;;15.55;59.93;94522.72;4976025;28;20072;-77
2022/05/23 02:41:54;;;;;;;10.05;4.47;;;;;;;15.65;59.57;94527.19;5010245;28;20034;-77
2022/05/23 02:44:19;;;;;;;7.18;4.85;;;;;;;15.76;59.14;94531.28;4976983;28;20042;-78
2022/05/23 02:46:45;;;;;;;5.03;4.55;;;;;;;15.87;58.96;94536.22;4984375;28;20037;-76
2022/05/23 02:49:11;;;;;;;7.57;4.50;;;;;;;15.97;58.67;94532.75;5010599;28;20092;-76
2022/05/23 02:51:36;;;;;;;6.40;4.28;;;;;;;16.05;58.14;94526.94;5000741;28;20485;-76
2022/05/23 02:54:02;;;;;;;7.72;4.10;;;;;;;16.16;57.81;94525.81;4952328;28;20037;-76
2022/05/23 02:56:28;;;;;;;5.07;4.32;;;;;;;16.25;57.71;94525.22;5009977;28;20516;-76
2022/05/23 02:58:53;;;;;;;11.48;4.38;;;;;;;16.35;57.15;94530.41;4993004;28;20105;-76
2022/05/23 03:01:19;;;;;;;6.85;3.83;;;;;;;16.43;57.07;94537.66;4992061;28;20401;-76
2022/05/23 03:03:45;;;;;;;4.40;4.03;;;;;;;16.49;56.47;94531.34;5009723;28;20609;-76
2022/05/23 03:06:10;;;;;;;5.40;4.75;;;;;;;16.57;56.30;94522.84;4991335;28;20030;-76
2022/05/23 03:08:36;;;;;;;5.95;4.18;;;;;;;16.66;56.22;94521.22;4992610;28;20073;-76
2022/05/23 03:11:03;;;;;;;9.45;4.38;;;;;;;16.74;56.08;94514.59;5010160;28;20034;-75
2022/05/23 03:13:29;;;;;;;6.63;4.45;;;;;;;16.82;55.81;94507.97;4976157;28;20029;-76
2022/05/23 03:15:54;;;;;;;9.88;4.60;;;;;;;16.90;55.46;94518.66;5009856;28;20036;-77
2022/05/23 03:18:21;;;;;;;10.98;4.70;;;;;;;16.97;55.51;94510.44;4976564;28;20042;-77
2022/05/23 03:20:46;;;;;;;11.05;4.20;;;;;;;17.06;55.76;94508.75;5010307;28;20026;-77
2022/05/23 03:28:41;;;;;;;11.85;4.88;;;;;;;17.26;57.33;94503.31;4995460;28;20476;-77
2022/05/23 03:31:06;;;;;;;8.18;4.93;;;;;;;17.34;56.83;94510.56;4992203;28;20076;-78
2022/05/23 03:33:32;;;;;;;11.93;4.07;;;;;;;17.41;56.51;94515.50;4992183;28;20033;-77
2022/05/23 03:35:57;;;;;;;8.32;3.90;;;;;;;17.48;55.90;94525.66;4992152;28;20034;-77
2022/05/23 03:38:23;;;;;;;7.90;4.00;;;;;;;17.55;55.25;94523.44;4992064;28;20044;-77
2022/05/23 03:40:48;;;;;;;4.13;3.75;;;;;;;17.61;54.44;94515.22;4992091;28;20129;-77
2022/05/23 03:43:14;;;;;;;9.70;4.53;;;;;;;17.66;55.28;94502.00;4966982;28;20038;-76
2022/05/23 03:45:40;;;;;;;9.60;4.28;;;;;;;17.68;56.15;94504.38;4991907;28;20108;-78
2022/05/23 03:48:06;;;;;;;12.80;4.55;;;;;;;17.75;55.00;94515.34;5009566;28;20468;-77
2022/05/23 03:50:32;;;;;;;4.78;3.90;;;;;;;17.79;54.25;94515.56;4992030;28;20474;-76
2022/05/23 03:52:58;;;;;;;5.25;3.58;;;;;;;17.78;53.44;94525.28;4991562;28;20095;-77
2022/05/23 03:55:23;;;;;;;6.35;3.55;;;;;;;17.79;53.75;94520.81;4975057;28;20514;-77
2022/05/23 03:57:49;;;;;;;15.80;4.25;;;;;;;17.86;53.75;94527.28;4976087;28;20517;-79
2022/05/23 04:00:16;;;;;;;7.97;4.55;;;;;;;17.96;54.00;94516.63;5016050;28;20561;-84
2022/05/23 04:02:41;;;;;;;21.73;5.25;;;;;;;18.05;53.81;94529.13;4986634;28;20037;-76
2022/05/23 04:05:09;;;;;;;12.48;4.75;;;;;;;18.35;53.47;94523.41;5020671;28;20034;-80
2022/05/23 04:07:36;;;;;;;10.43;4.47;;;;;;;18.88;51.11;94510.72;4985327;28;20034;-79
2022/05/23 04:10:03;;;;;;;9.77;4.63;;;;;;;18.87;51.01;94503.09;4992035;28;20517;-76
2022/05/23 04:12:28;;;;;;;5.15;4.28;;;;;;;18.80;51.31;94514.00;4991322;28;20064;-76
2022/05/23 04:14:54;;;;;;;9.75;4.25;;;;;;;19.46;50.23;94507.50;5011948;28;20474;-76
2022/05/23 04:17:19;;;;;;;8.15;4.07;;;;;;;21.49;45.23;94512.53;4995143;28;20057;-76
2022/05/23 04:19:45;;;;;;;7.25;4.25;;;;;;;23.64;40.33;94512.63;4978947;28;20482;-77
2022/05/23 04:22:10;;;;;;;10.43;3.88;;;;;;;25.63;35.91;94508.13;4994580;28;20030;-77
2022/05/23 04:24:36;;;;;;;15.10;3.70;;;;;;;27.24;32.82;94500.81;5012871;28;20041;-77
2022/05/23 04:27:01;;;;;;;12.38;3.53;;;;;;;28.03;31.12;94492.72;4981141;28;20041;-77
2022/05/23 04:29:27;;;;;;;12.75;3.50;;;;;;;28.31;30.74;94495.22;5017613;28;20056;-77
2022/05/23 04:31:52;;;;;;;7.07;3.63;;;;;;;27.54;31.75;94511.06;5012721;28;20048;-75
2022/05/23 04:37:02;;;;;;;28.00;4.15;;;;;;;25.35;34.89;94510.66;5012147;28;20096;-74
2022/05/23 04:39:27;;;;;;;11.48;3.70;;;;;;;24.50;36.60;94509.34;4994137;28;20042;-75
2022/05/23 04:41:53;;;;;;;10.98;3.38;;;;;;;23.84;37.95;94506.56;4994837;28;20037;-72
2022/05/23 04:44:18;;;;;;;8.30;3.47;;;;;;;23.38;38.94;94504.75;5012425;28;20042;-73
2022/05/23 04:49:49;;;;;;;5.63;3.97;;;;;;;22.76;40.71;94503.38;4996664;28;20096;-75
2022/05/23 04:52:16;;;;;;;12.43;4.40;;;;;;;22.71;41.15;94490.28;5012302;28;20122;-74
2022/05/23 04:54:41;;;;;;;9.85;3.78;;;;;;;23.43;40.03;94482.56;5012224;28;20046;-74
2022/05/23 04:57:07;;;;;;;9.43;3.33;;;;;;;25.17;35.62;94488.81;5011965;28;20044;-76
2022/05/23 04:59:33;;;;;;;18.85;3.65;;;;;;;27.55;31.93;94483.22;4969813;28;20093;-75
2022/05/23 05:02:01;;;;;;;16.55;2.85;;;;;;;29.21;28.29;94477.78;4976895;28;20087;-76
2022/05/23 05:04:30;;;;;;;4.68;2.42;;;;;;;29.89;27.13;94486.84;5010507;28;20591;-77
2022/05/23 05:06:55;;;;;;;19.55;2.60;;;;;;;29.20;27.36;94480.81;5010654;28;20517;-77
2022/05/23 05:09:21;;;;;;;11.35;2.50;;;;;;;28.28;28.92;94482.53;4992725;28;20046;-77
2022/05/23 05:11:46;;;;;;;8.23;2.03;;;;;;;27.36;29.54;94487.38;4992723;28;20042;-76
2022/05/23 05:14:12;;;;;;;9.82;2.47;;;;;;;27.01;30.59;94486.50;4993795;28;20047;-77
2022/05/23 05:16:37;;;;;;;4.63;2.33;;;;;;;27.08;29.95;94468.78;4977839;28;20041;-76
2022/05/23 05:19:03;;;;;;;8.68;2.42;;;;;;;28.52;28.22;94468.13;4994166;28;20068;-77
2022/05/23 05:21:29;;;;;;;5.50;2.13;;;;;;;31.09;24.29;94465.28;4986079;28;20038;-77
2022/05/23 05:23:54;;;;;;;5.15;2.30;;;;;;;33.20;21.55;94457.09;4961259;28;20034;-77
2022/05/23 05:26:21;;;;;;;7.80;1.90;;;;;;;35.13;19.51;94452.66;4984358;28;20053;-77
2022/05/23 05:28:46;;;;;;;5.43;2.00;;;;;;;36.81;17.17;94451.75;4977632;28;20052;-77
2022/05/23 05:31:22;;;;;;;11.40;1.92;;;;;;;38.06;16.02;94452.41;5011093;28;20038;-77
2022/05/23 05:33:51;;;;;;;8.45;1.60;;;;;;;38.97;14.93;94450.97;5011467;28;20044;-77
2022/05/23 05:36:23;;;;;;;10.95;1.30;;;;;;;40.41;14.01;94457.91;4993678;28;20041;-77
2022/05/23 05:39:02;;;;;;;8.95;1.35;;;;;;;41.46;13.33;94465.25;4978007;28;20040;-77
2022/05/23 05:41:39;;;;;;;9.10;1.38;;;;;;;42.27;12.92;94472.69;5011284;28;20046;-77
2022/05/23 05:44:07;;;;;;;10.43;1.77;;;;;;;42.70;12.15;94477.41;5010779;28;20167;-77
2022/05/23 05:46:40;;;;;;;2.28;1.48;;;;;;;41.54;12.96;94477.50;4977555;28;20196;-77
2022/05/23 05:49:09;;;;;;;6.07;1.42;;;;;;;39.21;14.21;94474.13;4994690;28;20088;-77
2022/05/23 05:51:35;;;;;;;5.07;2.28;;;;;;;37.24;16.07;94480.91;4992820;28;20110;-77
2022/05/23 05:54:00;;;;;;;7.88;1.80;;;;;;;34.81;18.18;94489.88;4960374;28;20056;-77
2022/05/23 05:56:26;;;;;;;5.70;2.08;;;;;;;33.23;19.89;94483.28;5011216;28;20041;-77
2022/05/23 05:58:51;;;;;;;4.70;1.85;;;;;;;31.83;21.19;94496.56;4977155;28;20184;-77
2022/05/23 06:01:17;;;;;;;7.38;1.80;;;;;;;30.81;22.98;94497.97;4977457;28;20418;-77
2022/05/23 06:03:42;;;;;;;5.05;1.90;;;;;;;29.80;24.17;94497.84;4993489;28;20042;-77
2022/05/23 06:11:39;;;;;;;4.35;2.10;;;;;;;27.92;27.49;94481.78;5010850;28;20108;-77
2022/05/23 06:14:05;;;;;;;7.32;3.28;;;;;;;27.62;27.41;94478.03;4993198;28;20038;-76
2022/05/23 06:16:32;;;;;;;15.18;4.18;;;;;;;27.40;28.22;94482.91;4992844;28;20126;-76
2022/05/23 06:18:57;;;;;;;9.50;2.45;;;;;;;27.14;28.35;94480.75;5010927;28;20481;-77
2022/05/23 06:21:23;;;;;;;6.88;2.50;;;;;;;27.16;28.91;94478.50;4977008;28;20029;-77
2022/05/23 06:23:49;;;;;;;6.60;2.10;;;;;;;27.66;28.72;94474.38;5010745;28;20473;-77
2022/05/23 06:26:15;;;;;;;7.20;2.70;;;;;;;29.47;26.17;94470.94;4976660;28;20060;-76
2022/05/23 06:28:42;;;;;;;7.78;2.65;;;;;;;30.15;25.26;94467.31;4993247;28;20026;-77
2022/05/23 06:31:07;;;;;;;7.40;2.88;;;;;;;31.38;24.31;94460.91;4992925;28;20156;-77
2022/05/23 06:33:33;;;;;;;14.32;2.65;;;;;;;33.00;21.42;94462.06;4960791;28;20124;-77
2022/05/23 06:35:58;;;;;;;5.78;1.98;;;;;;;34.65;19.73;94444.44;5015693;28;20038;-76
2022/05/23 06:38:25;;;;;;;22.40;2.33;;;;;;;36.01;18.44;94450.38;5001000;28;20026;-77
2022/05/23 06:40:51;;;;;;;5.60;2.35;;;;;;;36.81;17.01;94437.44;4993466;28;20034;-77
2022/05/23 06:43:16;;;;;;;5.75;1.90;;;;;;;37.34;16.49;94450.19;4967620;28;20088;-77
2022/05/23 06:45:42;;;;;;;5.65;1.90;;;;;;;37.89;15.66;94438.00;4992896;28;20037;-77
2022/05/23 06:48:08;;;;;;;5.60;2.42;;;;;;;38.06;15.63;94434.19;4992502;28;20053;-77
2022/05/23 06:50:33;;;;;;;3.88;2.00;;;;;;;37.95;16.00;94439.06;4992353;28;20034;-77
2022/05/23 06:52:59;;;;;;;5.30;1.95;;;;;;;37.71;16.43;94440.25;4968647;28;20106;-77
2022/05/23 06:55:24;;;;;;;5.68;2.13;;;;;;;37.18;16.92;94439.94;4992479;28;20030;-77
2022/05/23 06:57:50;;;;;;;4.97;1.95;;;;;;;36.85;16.80;94444.31;5011010;28;20042;-77
2022/05/23 07:00:17;;;;;;;7.13;1.75;;;;;;;36.50;16.69;94436.66;4981428;28;20045;-77
2022/05/23 07:02:43;;;;;;;5.05;2.10;;;;;;;36.09;17.75;94445.63;5002090;28;20037;-77
2022/05/23 07:13:21;;;;;;;11.18;2.13;;;;;;;34.74;18.31;94435.91;4995011;28;20121;-77
2022/05/23 07:15:47;;;;;;;9.50;2.08;;;;;;;34.06;18.55;94424.66;5009546;28;20042;-77
2022/05/23 07:18:16;;;;;;;8.02;2.08;;;;;;;33.39;19.49;94429.03;4992409;28;20060;-77
2022/05/23 07:20:42;;;;;;;22.88;2.47;;;;;;;32.70;20.46;94434.69;5008287;28;20541;-77
2022/05/23 07:23:07;;;;;;;5.75;2.42;;;;;;;32.42;20.81;94438.09;4967319;28;20081;-78
2022/05/23 07:25:33;;;;;;;4.60;2.10;;;;;;;32.22;21.11;94433.00;4992315;28;20068;-77
2022/05/23 07:27:59;;;;;;;9.50;2.40;;;;;;;31.99;21.53;94435.19;4991890;28;20107;-77
2022/05/23 07:30:24;;;;;;;7.80;2.10;;;;;;;31.87;20.40;94430.91;5009783;28;20652;-77
2022/05/23 07:32:50;;;;;;;31.90;2.80;;;;;;;31.55;20.11;94433.38;5008870;28;20045;-77
2022/05/23 07:35:16;;;;;;;6.13;2.08;;;;;;;31.24;20.57;94432.03;4976136;28;20037;-77
2022/05/23 07:37:42;;;;;;;8.30;1.17;;;;;;;31.10;21.22;94437.25;4982413;28;20127;-77
2022/05/23 07:40:09;;;;;;;9.82;2.72;;;;;;;30.68;20.46;94438.41;5009531;28;20468;-76
2022/05/23 07:42:35;;;;;;;11.65;5.75;;;;;;;30.39;21.25;94423.88;5013229;28;20084;-80
2022/05/23 07:45:01;;;;;;;10.93;1.92;;;;;;;29.83;22.58;94429.34;4990495;28;20026;-77
2022/05/23 07:47:27;;;;;;;3.65;1.50;;;;;;;29.51;22.18;94434.25;5008516;28;20049;-77
2022/05/23 07:49:52;;;;;;;17.38;1.60;;;;;;;29.27;22.57;94446.88;5013130;28;20087;-77
2022/05/23 07:52:18;;;;;;;12.98;1.88;;;;;;;29.11;23.19;94443.56;4994455;28;20110;-76
2022/05/23 08:00:31;;;;;;;14.38;3.08;;;;;;;29.01;23.90;94443.41;4984348;28;20128;-77
2022/05/23 08:02:56;;;;;;;11.85;2.17;;;;;;;29.00;24.79;94442.63;4984317;28;20103;-76
2022/05/23 08:05:22;;;;;;;2.55;1.88;;;;;;;29.01;24.97;94438.03;5012781;28;20037;-76
2022/05/23 08:07:47;;;;;;;7.20;2.03;;;;;;;28.87;24.30;94436.66;4970860;28;20029;-76
2022/05/23 08:10:13;;;;;;;12.32;2.15;;;;;;;28.79;24.49;94426.16;4961446;28;20528;-76
2022/05/23 08:12:38;;;;;;;14.52;1.70;;;;;;;28.64;24.47;94438.53;5012575;28;20486;-76
2022/05/23 08:15:04;;;;;;;9.70;1.65;;;;;;;28.63;23.87;94434.28;4978972;28;20077;-76
2022/05/23 08:17:30;;;;;;;5.88;1.40;;;;;;;28.76;25.49;94432.22;4994798;28;20053;-76
2022/05/23 08:19:56;;;;;;;12.95;1.95;;;;;;;28.65;23.96;94443.53;4977302;28;20074;-76
2022/05/23 08:22:22;;;;;;;21.58;3.53;;;;;;;28.42;24.06;94440.03;5010709;28;20072;-77
2022/05/23 08:24:48;;;;;;;8.13;3.10;;;;;;;28.46;24.47;94435.53;5011263;28;20064;-77
2022/05/23 08:27:14;;;;;;;22.08;13.82;;;;;;;28.67;25.12;94425.22;4980359;28;20033;-77
2022/05/23 08:29:40;;;;;;;32.83;16.95;;;;;;;28.70;23.73;94429.84;4977266;28;20056;-77
2022/05/23 08:32:06;;;;;;;25.60;7.95;;;;;;;28.86;23.03;94429.78;4977864;28;20651;-77
2022/05/23 08:34:32;;;;;;;6.93;2.28;;;;;;;28.80;23.61;94427.72;4988088;28;20053;-77
2022/05/23 08:36:58;;;;;;;7.15;2.67;;;;;;;28.85;24.26;94414.81;4978781;28;20030;-76
2022/05/23 08:39:25;;;;;;;8.38;2.65;;;;;;;28.93;24.11;94416.50;4977777;28;20030;-76
2022/05/23 08:41:51;;;;;;;15.73;3.80;;;;;;;29.11;23.51;94426.72;5009696;28;20034;-77
2022/05/23 08:44:37;;;;;;;6.13;1.85;;;;;;;29.12;22.43;94412.97;4978121;28;20038;-77
2022/05/23 08:47:08;;;;;;;15.38;2.70;;;;;;;29.14;22.79;94426.78;5010407;28;20503;-77
2022/05/23 08:49:40;;;;;;;2.55;1.95;;;;;;;29.13;22.83;94427.16;4993748;28;20061;-76
2022/05/23 08:52:13;;;;;;;10.00;1.67;;;;;;;28.84;22.84;94425.88;5011299;28;20025;-76
2022/05/23 08:55:17;;;;;;;13.00;2.40;;;;;;;28.42;23.21;94432.00;5011128;28;20034;-76
2022/05/23 08:58:04;;;;;;;4.80;2.03;;;;;;;27.85;23.38;94428.22;4996596;28;20394;-75
2022/05/23 09:00:35;;;;;;;9.02;2.05;;;;;;;27.73;23.98;94420.31;4992206;28;20041;-76
2022/05/23 09:03:19;;;;;;;10.85;2.88;;;;;;;27.71;24.10;94418.00;4993724;28;20117;-76
2022/05/23 09:05:51;;;;;;;10.20;3.10;;;;;;;27.70;24.67;94416.44;5011792;28;20042;-76
2022/05/23 09:08:20;;;;;;;17.17;2.60;;;;;;;27.57;24.33;94403.53;5001576;28;20482;-76
2022/05/23 09:10:49;;;;;;;14.23;2.33;;;;;;;27.38;25.23;94407.72;4997453;28;20022;-75
2022/05/23 09:13:15;;;;;;;16.15;2.40;;;;;;;27.24;24.88;94407.38;4984496;28;20153;-76
2022/05/23 09:15:41;;;;;;;5.13;2.95;;;;;;;27.18;25.16;94400.78;4994224;28;20040;-76
2022/05/23 09:18:08;;;;;;;6.43;2.00;;;;;;;27.21;25.18;94406.19;4993936;28;20041;-76
2022/05/23 09:20:44;;;;;;;7.32;3.42;;;;;;;27.20;25.25;94409.97;4977481;28;20030;-76
2022/05/23 09:23:13;;;;;;;3.08;2.28;;;;;;;27.01;25.01;94403.78;4993857;28;20042;-75
2022/05/23 09:25:39;;;;;;;7.85;4.45;;;;;;;26.86;25.73;94384.75;4977335;28;20037;-76
2022/05/23 09:28:13;;;;;;;2.78;1.60;;;;;;;26.76;26.08;94406.59;4953216;28;20038;-76
2022/05/23 09:30:39;;;;;;;12.48;1.67;;;;;;;26.64;26.49;94393.34;4992663;28;20512;-76
2022/05/23 09:33:08;;;;;;;2.95;1.70;;;;;;;26.51;26.81;94400.63;4960080;28;20508;-75
2022/05/23 09:35:43;;;;;;;10.55;2.60;;;;;;;26.30;28.22;94394.72;4978962;28;20597;-75
2022/05/23 09:38:22;;;;;;;8.20;4.35;;;;;;;26.01;28.32;94403.84;4995665;28;20092;-76
2022/05/23 09:40:48;;;;;;;6.03;2.03;;;;;;;25.87;28.43;94400.78;5010841;28;20120;-76
2022/05/23 09:49:12;;;;;;;5.95;1.88;;;;;;;25.55;29.68;94400.63;5011255;28;20048;-76
2022/05/23 09:51:55;;;;;;;3.85;1.80;;;;;;;25.49;29.95;94398.53;4985149;28;20042;-75
2022/05/23 09:54:29;;;;;;;3.15;1.92;;;;;;;25.50;29.65;94395.53;4959486;28;20026;-75
2022/05/23 09:56:56;;;;;;;4.68;2.28;;;;;;;25.51;30.07;94391.75;4992396;28;20505;-75
2022/05/23 09:59:33;;;;;;;7.25;1.90;;;;;;;25.47;29.39;94382.88;4976877;28;20036;-76
2022/05/23 10:02:31;;;;;;;8.00;1.92;;;;;;;25.43;29.94;94382.03;4993377;28;20053;-75
2022/05/23 10:04:56;;;;;;;8.63;2.55;;;;;;;25.35;30.20;94393.56;5003911;28;20088;-74
2022/05/23 10:07:33;;;;;;;9.38;2.03;;;;;;;25.26;28.94;94387.59;4984460;28;20113;-74
2022/05/23 10:10:25;;;;;;;6.15;2.00;;;;;;;25.18;29.30;94385.81;5010632;28;20044;-75
2022/05/23 10:12:52;;;;;;;8.07;1.77;;;;;;;25.01;29.33;94381.50;4976927;28;20033;-75
2022/05/23 10:15:25;;;;;;;11.18;2.72;;;;;;;25.02;29.78;94380.38;4977010;28;20094;-74
2022/05/23 10:18:08;;;;;;;11.60;3.25;;;;;;;25.04;30.66;94372.84;5008724;28;20038;-75
2022/05/23 10:20:41;;;;;;;6.68;2.15;;;;;;;25.06;30.99;94374.09;4990608;28;20041;-74
2022/05/23 10:23:21;;;;;;;4.30;2.17;;;;;;;25.07;29.56;94375.63;4993015;28;20052;-76
2022/05/23 10:26:15;;;;;;;7.43;1.75;;;;;;;25.04;29.47;94367.53;4994625;28;20026;-75
2022/05/23 10:28:44;;;;;;;4.28;1.58;;;;;;;25.08;29.99;94363.88;4992714;28;20041;-74
2022/05/23 10:31:20;;;;;;;11.48;2.08;;;;;;;25.10;29.62;94366.97;5010153;28;20033;-75
2022/05/23 10:33:48;;;;;;;2.95;1.60;;;;;;;25.07;28.45;94351.69;4977058;28;20038;-75
2022/05/23 10:36:21;;;;;;;3.33;1.67;;;;;;;25.02;28.98;94357.22;4975799;28;20030;-75
2022/05/23 10:44:51;;;;;;;2.65;1.42;;;;;;;24.81;29.34;94340.56;4983081;28;20183;-74
2022/05/23 10:47:34;;;;;;;5.50;1.35;;;;;;;24.82;29.31;94348.22;4991926;28;20103;-74
2022/05/23 10:50:12;;;;;;;1.95;1.63;;;;;;;24.93;29.76;94334.50;4991408;28;20136;-74
2022/05/23 10:52:44;;;;;;;3.50;1.67;;;;;;;24.98;29.14;94348.31;4992724;28;20034;-74
2022/05/23 10:55:43;;;;;;;7.65;1.95;;;;;;;24.92;29.23;94333.72;4992093;28;20037;-74
2022/05/23 10:58:28;;;;;;;2.15;1.42;;;;;;;24.89;28.87;94337.00;4983338;28;20048;-74
2022/05/23 11:01:08;;;;;;;6.60;1.85;;;;;;;24.90;29.55;94335.94;4993494;28;20037;-74
2022/05/23 11:03:44;;;;;;;5.47;1.40;;;;;;;24.89;28.87;94329.03;5008446;28;20088;-74
2022/05/23 11:06:30;;;;;;;5.95;1.90;;;;;;;24.89;28.92;94341.56;4976101;28;20029;-74
2022/05/23 11:09:06;;;;;;;1.55;1.17;;;;;;;24.81;28.39;94343.25;5008776;28;20089;-74
2022/05/23 11:12:06;;;;;;;2.30;1.38;;;;;;;24.75;28.71;94337.38;4992760;28;20120;-74
2022/05/23 11:15:02;;;;;;;5.50;1.60;;;;;;;24.71;29.04;94338.34;5009821;28;20037;-75
2022/05/23 11:17:37;;;;;;;2.55;1.52;;;;;;;24.65;28.88;94334.38;4993808;28;20041;-78
2022/05/23 11:20:08;;;;;;;11.25;1.55;;;;;;;24.68;28.09;94329.16;4992409;28;20041;-77
2022/05/23 11:22:36;;;;;;;6.35;1.55;;;;;;;24.69;28.33;94337.91;5021872;28;20041;-78
2022/05/23 11:25:23;;;;;;;1.67;1.33;;;;;;;24.66;27.89;94327.94;4988508;28;20034;-78
2022/05/23 11:33:41;;;;;;;8.77;2.20;;;;;;;24.68;29.12;94333.69;4983447;28;20045;-77
2022/05/23 11:36:09;;;;;;;13.45;2.15;;;;;;;24.75;29.14;94334.72;5009947;28;20034;-77
2022/05/23 11:38:41;;;;;;;7.10;2.20;;;;;;;24.80;28.55;94333.72;4984611;28;20557;-77
2022/05/23 11:41:10;;;;;;;3.03;1.35;;;;;;;24.74;28.95;94321.75;4977140;28;20104;-77
2022/05/23 11:43:36;;;;;;;2.75;1.88;;;;;;;24.74;28.88;94324.41;5000214;28;20030;-77
2022/05/23 11:46:03;;;;;;;6.30;1.85;;;;;;;24.82;29.26;94328.84;4975988;28;20040;-77
2022/05/23 11:48:41;;;;;;;10.68;1.55;;;;;;;24.90;29.41;94325.28;4985947;28;20041;-76
2022/05/23 11:51:12;;;;;;;7.93;2.22;;;;;;;24.92;28.21;94328.41;5017744;28;20125;-77
2022/05/23 11:53:59;;;;;;;6.00;1.80;;;;;;;24.93;28.74;94324.63;4992526;28;20096;-77
2022/05/23 11:56:40;;;;;;;5.38;1.60;;;;;;;24.95;28.69;94332.25;4986878;28;20081;-77
2022/05/23 11:59:07;;;;;;;3.20;1.83;;;;;;;24.96;29.08;94331.94;4992692;28;20022;-77
2022/05/23 12:01:32;;;;;;;3.42;1.48;;;;;;;25.00;28.76;94330.19;4992967;28;20041;-77
2022/05/23 12:04:01;;;;;;;5.20;1.48;;;;;;;25.06;29.09;94331.50;4992964;28;20029;-77
2022/05/23 12:06:29;;;;;;;8.82;1.73;;;;;;;25.21;29.31;94329.25;5010488;28;20125;-77
2022/05/23 12:08:57;;;;;;;8.55;2.00;;;;;;;25.23;27.97;94322.50;4992065;28;20049;-77
2022/05/23 12:11:24;;;;;;;9.07;1.90;;;;;;;25.23;27.84;94325.16;5009297;28;20036;-77
2022/05/23 12:13:51;;;;;;;6.38;1.90;;;;;;;25.25;28.22;94322.16;5000358;28;20030;-77
2022/05/23 12:16:32;;;;;;;9.50;1.80;;;;;;;25.19;27.83;94321.59;4996365;28;20122;-76
2022/05/23 12:19:26;;;;;;;4.65;1.33;;;;;;;25.14;28.23;94319.19;5010543;28;20025;-76
2022/05/23 12:21:52;;;;;;;2.67;1.60;;;;;;;25.14;28.28;94325.28;5009234;28;20022;-76
2022/05/23 12:24:18;;;;;;;16.77;2.17;;;;;;;25.02;28.01;94312.00;4991652;28;20038;-77
2022/05/23 12:26:50;;;;;;;18.20;2.58;;;;;;;25.01;28.79;94321.09;5009072;28;20118;-76
2022/05/23 12:29:25;;;;;;;9.18;1.67;;;;;;;25.02;29.10;94306.66;4991838;28;20036;-76
2022/05/23 12:32:16;;;;;;;6.00;1.60;;;;;;;25.04;28.39;94307.09;5008770;28;20033;-76
2022/05/23 12:34:43;;;;;;;5.43;1.40;;;;;;;24.99;29.42;94311.88;5004224;28;20042;-76
2022/05/23 12:37:34;;;;;;;4.57;1.48;;;;;;;25.03;28.63;94318.84;4994429;28;20494;-77